sensor_id;sensor_type;location;lat;lon;timestamp;P1;durP1;ratioP1;P2;durP2;ratioP2
11473;SDS011;5793;52.238;13.438;2023-09-18T00:01:20;6.95;;;6.32;;
11473;SDS011;5793;52.238;13.438;2023-09-18T00:03:48;6.57;;;6.07;;
11473;SDS011;5793;52.238;13.438;2023-09-18T00:06:16;6.40;;;5.63;;
11473;SDS011;5793;52.238;13.438;2023-09-18T00:08:45;6.70;;;6.00;;
11473;SDS011;5793;52.238;13.438;2023-09-18T00:11:14;7.22;;;6.53;;
11473;SDS011;5793;52.238;13.438;2023-09-18T00:13:42;6.80;;;6.20;;
11473;SDS011;5793;52.238;13.438;2023-09-18T00:16:10;6.30;;;5.70;;
11473;SDS011;5793;52.238;13.438;2023-09-18T00:18:40;6.90;;;6.30;;
11473;SDS011;5793;52.238;13.438;2023-09-18T00:21:10;6.40;;;5.80;;
11473;SDS011;5793;52.238;13.438;2023-09-18T00:23:38;7.13;;;6.47;;
11473;SDS011;5793;52.238;13.438;2023-09-18T00:26:06;7.25;;;6.40;;
11473;SDS011;5793;52.238;13.438;2023-09-18T00:28:34;8.00;;;6.43;;
11473;SDS011;5793;52.238;13.438;2023-09-18T00:31:02;7.40;;;6.05;;
11473;SDS011;5793;52.238;13.438;2023-09-18T00:33:29;7.05;;;6.32;;
11473;SDS011;5793;52.238;13.438;2023-09-18T00:36:00;6.80;;;6.15;;
11473;SDS011;5793;52.238;13.438;2023-09-18T00:38:28;6.70;;;5.90;;
11473;SDS011;5793;52.238;13.438;2023-09-18T00:40:56;6.90;;;6.30;;
11473;SDS011;5793;52.238;13.438;2023-09-18T00:43:24;6.63;;;5.90;;
11473;SDS011;5793;52.238;13.438;2023-09-18T00:45:52;7.25;;;5.95;;
11473;SDS011;5793;52.238;13.438;2023-09-18T00:48:20;6.55;;;6.00;;
11473;SDS011;5793;52.238;13.438;2023-09-18T00:50:48;8.68;;;6.35;;
11473;SDS011;5793;52.238;13.438;2023-09-18T00:53:19;6.57;;;5.97;;
11473;SDS011;5793;52.238;13.438;2023-09-18T00:55:49;7.47;;;6.78;;
11473;SDS011;5793;52.238;13.438;2023-09-18T00:58:20;6.80;;;6.10;;
11473;SDS011;5793;52.238;13.438;2023-09-18T01:00:49;6.93;;;6.22;;
11473;SDS011;5793;52.238;13.438;2023-09-18T01:03:18;6.63;;;6.03;;
11473;SDS011;5793;52.238;13.438;2023-09-18T01:05:47;11.00;;;7.68;;
11473;SDS011;5793;52.238;13.438;2023-09-18T01:08:17;9.60;;;6.40;;
11473;SDS011;5793;52.238;13.438;2023-09-18T01:10:47;7.50;;;6.32;;
11473;SDS011;5793;52.238;13.438;2023-09-18T01:13:27;7.25;;;6.65;;
11473;SDS011;5793;52.238;13.438;2023-09-18T01:15:58;7.43;;;6.43;;
11473;SDS011;5793;52.238;13.438;2023-09-18T01:18:30;7.93;;;6.38;;
11473;SDS011;5793;52.238;13.438;2023-09-18T01:20:58;6.70;;;6.10;;
11473;SDS011;5793;52.238;13.438;2023-09-18T01:23:27;7.10;;;6.40;;
11473;SDS011;5793;52.238;13.438;2023-09-18T01:25:56;8.73;;;6.55;;
11473;SDS011;5793;52.238;13.438;2023-09-18T01:28:24;6.53;;;5.93;;
11473;SDS011;5793;52.238;13.438;2023-09-18T01:30:51;7.60;;;6.68;;
11473;SDS011;5793;52.238;13.438;2023-09-18T01:33:20;8.35;;;6.57;;
11473;SDS011;5793;52.238;13.438;2023-09-18T01:35:50;7.20;;;6.07;;
11473;SDS011;5793;52.238;13.438;2023-09-18T01:38:21;8.25;;;6.82;;
11473;SDS011;5793;52.238;13.438;2023-09-18T01:40:51;9.43;;;6.30;;
11473;SDS011;5793;52.238;13.438;2023-09-18T01:43:21;6.72;;;6.00;;
11473;SDS011;5793;52.238;13.438;2023-09-18T01:45:49;7.07;;;6.38;;
11473;SDS011;5793;52.238;13.438;2023-09-18T01:48:17;6.80;;;6.20;;
11473;SDS011;5793;52.238;13.438;2023-09-18T01:50:45;6.95;;;6.20;;
11473;SDS011;5793;52.238;13.438;2023-09-18T01:53:13;6.70;;;6.10;;
11473;SDS011;5793;52.238;13.438;2023-09-18T01:55:41;8.02;;;6.95;;
11473;SDS011;5793;52.238;13.438;2023-09-18T01:58:10;8.80;;;6.82;;
11473;SDS011;5793;52.238;13.438;2023-09-18T02:00:41;6.20;;;5.65;;
11473;SDS011;5793;52.238;13.438;2023-09-18T02:03:09;8.55;;;6.80;;
11473;SDS011;5793;52.238;13.438;2023-09-18T02:05:57;6.78;;;5.72;;
11473;SDS011;5793;52.238;13.438;2023-09-18T02:08:25;6.78;;;5.88;;
11473;SDS011;5793;52.238;13.438;2023-09-18T02:10:53;7.32;;;6.63;;
11473;SDS011;5793;52.238;13.438;2023-09-18T02:13:22;7.15;;;6.28;;
11473;SDS011;5793;52.238;13.438;2023-09-18T02:15:52;7.07;;;6.38;;
11473;SDS011;5793;52.238;13.438;2023-09-18T02:18:20;6.40;;;5.80;;
11473;SDS011;5793;52.238;13.438;2023-09-18T02:20:48;6.78;;;6.18;;
11473;SDS011;5793;52.238;13.438;2023-09-18T02:23:15;8.48;;;6.78;;
11473;SDS011;5793;52.238;13.438;2023-09-18T02:25:44;9.98;;;7.28;;
11473;SDS011;5793;52.238;13.438;2023-09-18T02:28:13;7.78;;;6.32;;
11473;SDS011;5793;52.238;13.438;2023-09-18T02:30:43;7.00;;;6.30;;
11473;SDS011;5793;52.238;13.438;2023-09-18T02:33:11;7.15;;;6.40;;
11473;SDS011;5793;52.238;13.438;2023-09-18T02:35:40;7.00;;;6.30;;
11473;SDS011;5793;52.238;13.438;2023-09-18T02:38:09;7.55;;;6.85;;
11473;SDS011;5793;52.238;13.438;2023-09-18T02:40:37;7.63;;;6.38;;
11473;SDS011;5793;52.238;13.438;2023-09-18T02:43:05;7.00;;;6.40;;
11473;SDS011;5793;52.238;13.438;2023-09-18T02:45:33;7.15;;;6.45;;
11473;SDS011;5793;52.238;13.438;2023-09-18T02:48:02;6.75;;;5.90;;
11473;SDS011;5793;52.238;13.438;2023-09-18T02:50:31;6.82;;;6.22;;
11473;SDS011;5793;52.238;13.438;2023-09-18T02:52:59;7.55;;;6.75;;
11473;SDS011;5793;52.238;13.438;2023-09-18T02:55:27;7.05;;;6.32;;
11473;SDS011;5793;52.238;13.438;2023-09-18T02:57:54;9.75;;;7.13;;
11473;SDS011;5793;52.238;13.438;2023-09-18T03:00:22;7.13;;;6.43;;
11473;SDS011;5793;52.238;13.438;2023-09-18T03:03:09;7.65;;;6.88;;
11473;SDS011;5793;52.238;13.438;2023-09-18T03:05:38;8.15;;;6.70;;
11473;SDS011;5793;52.238;13.438;2023-09-18T03:08:07;7.30;;;6.53;;
11473;SDS011;5793;52.238;13.438;2023-09-18T03:10:36;9.07;;;6.13;;
11473;SDS011;5793;52.238;13.438;2023-09-18T03:13:06;7.15;;;6.45;;
11473;SDS011;5793;52.238;13.438;2023-09-18T03:15:35;6.28;;;5.72;;
11473;SDS011;5793;52.238;13.438;2023-09-18T03:18:03;8.63;;;6.63;;
11473;SDS011;5793;52.238;13.438;2023-09-18T03:20:34;7.45;;;6.75;;
11473;SDS011;5793;52.238;13.438;2023-09-18T03:23:02;7.05;;;6.35;;
11473;SDS011;5793;52.238;13.438;2023-09-18T03:25:30;7.68;;;6.90;;
11473;SDS011;5793;52.238;13.438;2023-09-18T03:28:16;8.13;;;6.70;;
11473;SDS011;5793;52.238;13.438;2023-09-18T03:30:44;8.20;;;6.80;;
11473;SDS011;5793;52.238;13.438;2023-09-18T03:33:12;8.00;;;6.47;;
11473;SDS011;5793;52.238;13.438;2023-09-18T03:35:48;7.38;;;6.57;;
11473;SDS011;5793;52.238;13.438;2023-09-18T03:38:16;7.07;;;6.30;;
11473;SDS011;5793;52.238;13.438;2023-09-18T03:40:45;6.97;;;6.28;;
11473;SDS011;5793;52.238;13.438;2023-09-18T03:43:13;9.68;;;6.55;;
11473;SDS011;5793;52.238;13.438;2023-09-18T03:45:40;7.43;;;6.72;;
11473;SDS011;5793;52.238;13.438;2023-09-18T03:48:09;6.82;;;6.22;;
11473;SDS011;5793;52.238;13.438;2023-09-18T03:50:37;7.05;;;6.35;;
11473;SDS011;5793;52.238;13.438;2023-09-18T03:53:08;7.70;;;6.32;;
11473;SDS011;5793;52.238;13.438;2023-09-18T03:55:37;9.10;;;6.72;;
11473;SDS011;5793;52.238;13.438;2023-09-18T03:58:05;8.98;;;7.00;;
11473;SDS011;5793;52.238;13.438;2023-09-18T04:00:33;8.93;;;7.47;;
11473;SDS011;5793;52.238;13.438;2023-09-18T04:03:01;9.27;;;7.93;;
11473;SDS011;5793;52.238;13.438;2023-09-18T04:05:28;7.13;;;6.53;;
11473;SDS011;5793;52.238;13.438;2023-09-18T04:07:56;7.10;;;6.45;;
11473;SDS011;5793;52.238;13.438;2023-09-18T04:10:25;7.05;;;6.15;;
11473;SDS011;5793;52.238;13.438;2023-09-18T04:12:53;7.68;;;6.95;;
11473;SDS011;5793;52.238;13.438;2023-09-18T04:15:22;7.57;;;6.88;;
11473;SDS011;5793;52.238;13.438;2023-09-18T04:17:50;9.95;;;7.63;;
11473;SDS011;5793;52.238;13.438;2023-09-18T04:20:18;7.60;;;6.90;;
11473;SDS011;5793;52.238;13.438;2023-09-18T04:22:46;7.95;;;7.22;;
11473;SDS011;5793;52.238;13.438;2023-09-18T04:25:16;9.27;;;6.90;;
11473;SDS011;5793;52.238;13.438;2023-09-18T04:27:47;7.35;;;6.50;;
11473;SDS011;5793;52.238;13.438;2023-09-18T04:30:16;8.00;;;7.20;;
11473;SDS011;5793;52.238;13.438;2023-09-18T04:32:46;8.10;;;7.30;;
11473;SDS011;5793;52.238;13.438;2023-09-18T04:35:14;8.13;;;7.03;;
11473;SDS011;5793;52.238;13.438;2023-09-18T04:37:42;8.43;;;6.93;;
11473;SDS011;5793;52.238;13.438;2023-09-18T04:40:10;10.23;;;7.43;;
11473;SDS011;5793;52.238;13.438;2023-09-18T04:42:38;7.20;;;6.43;;
11473;SDS011;5793;52.238;13.438;2023-09-18T04:45:08;7.22;;;6.32;;
11473;SDS011;5793;52.238;13.438;2023-09-18T04:47:36;7.47;;;6.65;;
11473;SDS011;5793;52.238;13.438;2023-09-18T04:50:04;10.52;;;6.72;;
11473;SDS011;5793;52.238;13.438;2023-09-18T04:52:39;11.18;;;7.15;;
11473;SDS011;5793;52.238;13.438;2023-09-18T04:55:09;8.60;;;6.70;;
11473;SDS011;5793;52.238;13.438;2023-09-18T04:57:37;12.95;;;7.65;;
11473;SDS011;5793;52.238;13.438;2023-09-18T05:00:06;7.63;;;6.43;;
11473;SDS011;5793;52.238;13.438;2023-09-18T05:02:43;10.65;;;6.95;;
11473;SDS011;5793;52.238;13.438;2023-09-18T05:05:11;10.85;;;6.93;;
11473;SDS011;5793;52.238;13.438;2023-09-18T05:07:40;9.57;;;7.28;;
11473;SDS011;5793;52.238;13.438;2023-09-18T05:10:09;9.32;;;6.45;;
11473;SDS011;5793;52.238;13.438;2023-09-18T05:12:38;10.05;;;7.22;;
11473;SDS011;5793;52.238;13.438;2023-09-18T05:15:09;9.57;;;7.13;;
11473;SDS011;5793;52.238;13.438;2023-09-18T05:17:39;10.80;;;7.38;;
11473;SDS011;5793;52.238;13.438;2023-09-18T05:20:13;7.90;;;7.10;;
11473;SDS011;5793;52.238;13.438;2023-09-18T05:22:44;9.50;;;6.60;;
11473;SDS011;5793;52.238;13.438;2023-09-18T05:25:12;9.50;;;6.82;;
11473;SDS011;5793;52.238;13.438;2023-09-18T05:27:42;7.40;;;6.63;;
11473;SDS011;5793;52.238;13.438;2023-09-18T05:30:13;7.85;;;7.05;;
11473;SDS011;5793;52.238;13.438;2023-09-18T05:32:42;10.20;;;7.70;;
11473;SDS011;5793;52.238;13.438;2023-09-18T05:35:12;10.25;;;6.97;;
11473;SDS011;5793;52.238;13.438;2023-09-18T05:37:40;10.20;;;7.05;;
11473;SDS011;5793;52.238;13.438;2023-09-18T05:40:09;8.10;;;7.03;;
11473;SDS011;5793;52.238;13.438;2023-09-18T05:42:38;8.90;;;6.93;;
11473;SDS011;5793;52.238;13.438;2023-09-18T05:45:09;7.20;;;6.53;;
11473;SDS011;5793;52.238;13.438;2023-09-18T05:47:38;8.68;;;7.78;;
11473;SDS011;5793;52.238;13.438;2023-09-18T05:50:07;9.32;;;6.75;;
11473;SDS011;5793;52.238;13.438;2023-09-18T05:52:36;10.52;;;6.88;;
11473;SDS011;5793;52.238;13.438;2023-09-18T05:55:04;9.68;;;7.63;;
11473;SDS011;5793;52.238;13.438;2023-09-18T05:57:33;7.68;;;6.93;;
11473;SDS011;5793;52.238;13.438;2023-09-18T06:00:01;6.55;;;5.95;;
11473;SDS011;5793;52.238;13.438;2023-09-18T06:02:29;12.57;;;8.02;;
11473;SDS011;5793;52.238;13.438;2023-09-18T06:04:59;11.38;;;7.50;;
11473;SDS011;5793;52.238;13.438;2023-09-18T06:07:29;7.75;;;6.80;;
11473;SDS011;5793;52.238;13.438;2023-09-18T06:09:57;8.10;;;7.28;;
11473;SDS011;5793;52.238;13.438;2023-09-18T06:12:25;8.15;;;7.18;;
11473;SDS011;5793;52.238;13.438;2023-09-18T06:14:53;8.75;;;7.35;;
11473;SDS011;5793;52.238;13.438;2023-09-18T06:17:21;10.73;;;7.18;;
11473;SDS011;5793;52.238;13.438;2023-09-18T06:19:49;9.25;;;7.43;;
11473;SDS011;5793;52.238;13.438;2023-09-18T06:22:20;9.35;;;7.93;;
11473;SDS011;5793;52.238;13.438;2023-09-18T06:24:47;15.15;;;8.45;;
11473;SDS011;5793;52.238;13.438;2023-09-18T06:27:15;8.25;;;7.45;;
11473;SDS011;5793;52.238;13.438;2023-09-18T06:29:45;12.60;;;8.25;;
11473;SDS011;5793;52.238;13.438;2023-09-18T06:32:12;8.25;;;7.45;;
11473;SDS011;5793;52.238;13.438;2023-09-18T06:34:40;15.45;;;8.90;;
11473;SDS011;5793;52.238;13.438;2023-09-18T06:37:10;8.80;;;7.53;;
11473;SDS011;5793;52.238;13.438;2023-09-18T06:39:40;8.43;;;7.63;;
11473;SDS011;5793;52.238;13.438;2023-09-18T06:42:08;8.38;;;7.55;;
11473;SDS011;5793;52.238;13.438;2023-09-18T06:44:36;8.65;;;7.63;;
11473;SDS011;5793;52.238;13.438;2023-09-18T06:47:04;9.00;;;7.70;;
11473;SDS011;5793;52.238;13.438;2023-09-18T06:49:32;8.23;;;7.47;;
11473;SDS011;5793;52.238;13.438;2023-09-18T06:52:00;8.40;;;7.60;;
11473;SDS011;5793;52.238;13.438;2023-09-18T06:54:32;8.30;;;7.45;;
11473;SDS011;5793;52.238;13.438;2023-09-18T06:57:01;7.40;;;6.70;;
11473;SDS011;5793;52.238;13.438;2023-09-18T06:59:29;11.38;;;10.20;;
11473;SDS011;5793;52.238;13.438;2023-09-18T07:02:00;12.68;;;8.50;;
11473;SDS011;5793;52.238;13.438;2023-09-18T07:04:29;8.40;;;7.60;;
11473;SDS011;5793;52.238;13.438;2023-09-18T07:06:56;8.57;;;7.15;;
11473;SDS011;5793;52.238;13.438;2023-09-18T07:09:24;7.88;;;7.07;;
11473;SDS011;5793;52.238;13.438;2023-09-18T07:11:52;7.57;;;6.88;;
11473;SDS011;5793;52.238;13.438;2023-09-18T07:14:21;9.57;;;7.50;;
11473;SDS011;5793;52.238;13.438;2023-09-18T07:16:49;8.85;;;6.93;;
11473;SDS011;5793;52.238;13.438;2023-09-18T07:19:17;9.82;;;7.28;;
11473;SDS011;5793;52.238;13.438;2023-09-18T07:21:45;9.60;;;6.60;;
11473;SDS011;5793;52.238;13.438;2023-09-18T07:24:13;7.72;;;6.80;;
11473;SDS011;5793;52.238;13.438;2023-09-18T07:26:44;8.13;;;6.63;;
11473;SDS011;5793;52.238;13.438;2023-09-18T07:29:13;6.50;;;5.90;;
11473;SDS011;5793;52.238;13.438;2023-09-18T07:31:42;8.45;;;5.90;;
11473;SDS011;5793;52.238;13.438;2023-09-18T07:34:11;11.88;;;6.55;;
11473;SDS011;5793;52.238;13.438;2023-09-18T07:36:39;7.18;;;6.28;;
11473;SDS011;5793;52.238;13.438;2023-09-18T07:39:07;6.55;;;5.80;;
11473;SDS011;5793;52.238;13.438;2023-09-18T07:41:35;5.72;;;5.22;;
11473;SDS011;5793;52.238;13.438;2023-09-18T07:44:03;11.15;;;5.47;;
11473;SDS011;5793;52.238;13.438;2023-09-18T07:46:31;5.72;;;5.13;;
11473;SDS011;5793;52.238;13.438;2023-09-18T07:49:00;7.97;;;5.03;;
11473;SDS011;5793;52.238;13.438;2023-09-18T07:51:28;9.15;;;5.15;;
11473;SDS011;5793;52.238;13.438;2023-09-18T07:53:57;8.25;;;4.93;;
11473;SDS011;5793;52.238;13.438;2023-09-18T07:56:25;5.63;;;4.75;;
11473;SDS011;5793;52.238;13.438;2023-09-18T07:58:53;5.22;;;4.75;;
11473;SDS011;5793;52.238;13.438;2023-09-18T08:01:21;6.55;;;4.90;;
11473;SDS011;5793;52.238;13.438;2023-09-18T08:03:49;5.32;;;4.35;;
11473;SDS011;5793;52.238;13.438;2023-09-18T08:06:18;4.97;;;4.40;;
11473;SDS011;5793;52.238;13.438;2023-09-18T08:08:48;5.65;;;4.20;;
11473;SDS011;5793;52.238;13.438;2023-09-18T08:11:17;4.72;;;4.28;;
11473;SDS011;5793;52.238;13.438;2023-09-18T08:13:45;6.15;;;4.25;;
11473;SDS011;5793;52.238;13.438;2023-09-18T08:16:12;5.18;;;4.18;;
11473;SDS011;5793;52.238;13.438;2023-09-18T08:18:40;4.90;;;4.32;;
11473;SDS011;5793;52.238;13.438;2023-09-18T08:21:08;4.45;;;4.05;;
11473;SDS011;5793;52.238;13.438;2023-09-18T08:23:38;6.38;;;4.25;;
11473;SDS011;5793;52.238;13.438;2023-09-18T08:26:05;6.97;;;4.00;;
11473;SDS011;5793;52.238;13.438;2023-09-18T08:28:33;5.85;;;4.32;;
11473;SDS011;5793;52.238;13.438;2023-09-18T08:31:05;4.30;;;3.90;;
11473;SDS011;5793;52.238;13.438;2023-09-18T08:33:33;13.48;;;5.40;;
11473;SDS011;5793;52.238;13.438;2023-09-18T08:36:02;5.72;;;4.05;;
11473;SDS011;5793;52.238;13.438;2023-09-18T08:38:30;5.32;;;3.90;;
11473;SDS011;5793;52.238;13.438;2023-09-18T08:41:00;7.00;;;4.13;;
11473;SDS011;5793;52.238;13.438;2023-09-18T08:43:29;5.30;;;4.72;;
11473;SDS011;5793;52.238;13.438;2023-09-18T08:45:59;5.10;;;3.50;;
11473;SDS011;5793;52.238;13.438;2023-09-18T08:48:29;4.75;;;4.05;;
11473;SDS011;5793;52.238;13.438;2023-09-18T08:51:02;8.18;;;4.00;;
11473;SDS011;5793;52.238;13.438;2023-09-18T08:53:30;4.95;;;3.50;;
11473;SDS011;5793;52.238;13.438;2023-09-18T08:56:00;4.13;;;3.53;;
11473;SDS011;5793;52.238;13.438;2023-09-18T08:58:29;4.35;;;3.42;;
11473;SDS011;5793;52.238;13.438;2023-09-18T09:01:00;4.30;;;3.53;;
11473;SDS011;5793;52.238;13.438;2023-09-18T09:03:29;11.85;;;4.20;;
11473;SDS011;5793;52.238;13.438;2023-09-18T09:05:58;4.47;;;3.33;;
11473;SDS011;5793;52.238;13.438;2023-09-18T09:08:27;4.13;;;3.47;;
11473;SDS011;5793;52.238;13.438;2023-09-18T09:10:55;4.05;;;3.75;;
11473;SDS011;5793;52.238;13.438;2023-09-18T09:13:25;3.90;;;3.40;;
11473;SDS011;5793;52.238;13.438;2023-09-18T09:16:06;4.10;;;3.22;;
11473;SDS011;5793;52.238;13.438;2023-09-18T09:18:46;5.97;;;3.80;;
11473;SDS011;5793;52.238;13.438;2023-09-18T09:21:16;7.03;;;3.55;;
11473;SDS011;5793;52.238;13.438;2023-09-18T09:23:44;4.55;;;3.50;;
11473;SDS011;5793;52.238;13.438;2023-09-18T09:26:16;5.05;;;3.28;;
11473;SDS011;5793;52.238;13.438;2023-09-18T09:28:46;3.58;;;3.25;;
11473;SDS011;5793;52.238;13.438;2023-09-18T09:31:22;4.32;;;3.85;;
11473;SDS011;5793;52.238;13.438;2023-09-18T09:33:52;5.28;;;3.50;;
11473;SDS011;5793;52.238;13.438;2023-09-18T09:36:20;5.10;;;3.58;;
11473;SDS011;5793;52.238;13.438;2023-09-18T09:38:49;4.13;;;3.75;;
11473;SDS011;5793;52.238;13.438;2023-09-18T09:41:22;3.50;;;3.20;;
11473;SDS011;5793;52.238;13.438;2023-09-18T09:43:51;4.85;;;3.65;;
11473;SDS011;5793;52.238;13.438;2023-09-18T09:46:21;3.65;;;3.35;;
11473;SDS011;5793;52.238;13.438;2023-09-18T09:48:58;3.65;;;3.35;;
11473;SDS011;5793;52.238;13.438;2023-09-18T09:51:27;4.40;;;4.00;;
11473;SDS011;5793;52.238;13.438;2023-09-18T09:53:55;4.75;;;3.65;;
11473;SDS011;5793;52.238;13.438;2023-09-18T09:56:39;3.67;;;3.38;;
11473;SDS011;5793;52.238;13.438;2023-09-18T09:59:10;3.90;;;3.60;;
11473;SDS011;5793;52.238;13.438;2023-09-18T10:01:39;4.20;;;3.78;;
11473;SDS011;5793;52.238;13.438;2023-09-18T10:04:10;4.50;;;3.55;;
11473;SDS011;5793;52.238;13.438;2023-09-18T10:06:40;7.65;;;3.95;;
11473;SDS011;5793;52.238;13.438;2023-09-18T10:09:11;4.45;;;4.03;;
11473;SDS011;5793;52.238;13.438;2023-09-18T10:11:41;4.10;;;3.70;;
11473;SDS011;5793;52.238;13.438;2023-09-18T10:14:14;4.20;;;3.80;;
11473;SDS011;5793;52.238;13.438;2023-09-18T10:16:45;5.90;;;3.88;;
11473;SDS011;5793;52.238;13.438;2023-09-18T10:19:21;4.55;;;3.92;;
11473;SDS011;5793;52.238;13.438;2023-09-18T10:22:01;4.00;;;3.60;;
11473;SDS011;5793;52.238;13.438;2023-09-18T10:24:37;4.32;;;3.88;;
11473;SDS011;5793;52.238;13.438;2023-09-18T10:27:08;7.00;;;4.00;;
11473;SDS011;5793;52.238;13.438;2023-09-18T10:29:41;4.55;;;4.07;;
11473;SDS011;5793;52.238;13.438;2023-09-18T10:32:11;7.63;;;3.88;;
11473;SDS011;5793;52.238;13.438;2023-09-18T10:34:39;5.30;;;3.92;;
11473;SDS011;5793;52.238;13.438;2023-09-18T10:37:08;5.00;;;3.90;;
11473;SDS011;5793;52.238;13.438;2023-09-18T10:39:39;4.38;;;3.90;;
11473;SDS011;5793;52.238;13.438;2023-09-18T10:42:10;4.13;;;3.47;;
11473;SDS011;5793;52.238;13.438;2023-09-18T10:44:42;4.72;;;3.95;;
11473;SDS011;5793;52.238;13.438;2023-09-18T10:47:10;4.38;;;3.97;;
11473;SDS011;5793;52.238;13.438;2023-09-18T10:49:41;12.40;;;4.20;;
11473;SDS011;5793;52.238;13.438;2023-09-18T10:52:10;5.45;;;3.80;;
11473;SDS011;5793;52.238;13.438;2023-09-18T10:54:39;4.70;;;4.30;;
11473;SDS011;5793;52.238;13.438;2023-09-18T10:57:07;30.05;;;6.97;;
11473;SDS011;5793;52.238;13.438;2023-09-18T10:59:44;4.68;;;4.00;;
11473;SDS011;5793;52.238;13.438;2023-09-18T11:02:13;7.43;;;3.85;;
11473;SDS011;5793;52.238;13.438;2023-09-18T11:04:42;4.30;;;3.90;;
11473;SDS011;5793;52.238;13.438;2023-09-18T11:07:19;9.48;;;4.53;;
11473;SDS011;5793;52.238;13.438;2023-09-18T11:09:47;17.65;;;5.43;;
11473;SDS011;5793;52.238;13.438;2023-09-18T11:12:16;28.60;;;6.20;;
11473;SDS011;5793;52.238;13.438;2023-09-18T11:14:47;8.65;;;5.00;;
11473;SDS011;5793;52.238;13.438;2023-09-18T11:17:29;23.13;;;6.35;;
11473;SDS011;5793;52.238;13.438;2023-09-18T11:20:09;16.98;;;5.70;;
11473;SDS011;5793;52.238;13.438;2023-09-18T11:22:47;8.30;;;4.63;;
11473;SDS011;5793;52.238;13.438;2023-09-18T11:25:29;11.70;;;5.30;;
11473;SDS011;5793;52.238;13.438;2023-09-18T11:28:05;16.45;;;5.97;;
11473;SDS011;5793;52.238;13.438;2023-09-18T11:30:36;9.45;;;4.97;;
11473;SDS011;5793;52.238;13.438;2023-09-18T11:33:06;6.97;;;4.78;;
11473;SDS011;5793;52.238;13.438;2023-09-18T11:35:35;7.25;;;4.80;;
11473;SDS011;5793;52.238;13.438;2023-09-18T11:38:05;9.60;;;4.47;;
11473;SDS011;5793;52.238;13.438;2023-09-18T11:40:35;5.25;;;4.13;;
11473;SDS011;5793;52.238;13.438;2023-09-18T11:43:18;7.97;;;4.50;;
11473;SDS011;5793;52.238;13.438;2023-09-18T11:45:52;10.90;;;4.85;;
11473;SDS011;5793;52.238;13.438;2023-09-18T11:48:22;10.75;;;5.22;;
11473;SDS011;5793;52.238;13.438;2023-09-18T11:50:56;13.50;;;5.03;;
11473;SDS011;5793;52.238;13.438;2023-09-18T11:53:26;23.15;;;5.97;;
11473;SDS011;5793;52.238;13.438;2023-09-18T11:55:55;19.50;;;5.43;;
11473;SDS011;5793;52.238;13.438;2023-09-18T11:58:23;17.20;;;5.10;;
11473;SDS011;5793;52.238;13.438;2023-09-18T12:00:52;20.90;;;5.60;;
11473;SDS011;5793;52.238;13.438;2023-09-18T12:03:21;17.23;;;5.45;;
11473;SDS011;5793;52.238;13.438;2023-09-18T12:05:54;13.85;;;5.50;;
11473;SDS011;5793;52.238;13.438;2023-09-18T12:08:23;13.80;;;4.90;;
11473;SDS011;5793;52.238;13.438;2023-09-18T12:10:53;14.30;;;4.78;;
11473;SDS011;5793;52.238;13.438;2023-09-18T12:13:21;13.60;;;5.07;;
11473;SDS011;5793;52.238;13.438;2023-09-18T12:15:57;9.40;;;4.60;;
11473;SDS011;5793;52.238;13.438;2023-09-18T12:18:26;8.57;;;3.63;;
11473;SDS011;5793;52.238;13.438;2023-09-18T12:20:56;5.43;;;3.95;;
11473;SDS011;5793;52.238;13.438;2023-09-18T12:23:25;7.68;;;4.05;;
11473;SDS011;5793;52.238;13.438;2023-09-18T12:25:57;8.30;;;4.03;;
11473;SDS011;5793;52.238;13.438;2023-09-18T12:28:27;6.57;;;4.05;;
11473;SDS011;5793;52.238;13.438;2023-09-18T12:30:57;11.63;;;4.00;;
11473;SDS011;5793;52.238;13.438;2023-09-18T12:33:25;6.72;;;4.20;;
11473;SDS011;5793;52.238;13.438;2023-09-18T12:35:53;9.82;;;4.32;;
11473;SDS011;5793;52.238;13.438;2023-09-18T12:38:21;13.20;;;4.30;;
11473;SDS011;5793;52.238;13.438;2023-09-18T12:40:53;9.27;;;3.92;;
11473;SDS011;5793;52.238;13.438;2023-09-18T12:43:21;14.85;;;4.57;;
11473;SDS011;5793;52.238;13.438;2023-09-18T12:45:50;15.00;;;4.57;;
11473;SDS011;5793;52.238;13.438;2023-09-18T12:48:24;9.20;;;3.88;;
11473;SDS011;5793;52.238;13.438;2023-09-18T12:50:53;10.10;;;4.05;;
11473;SDS011;5793;52.238;13.438;2023-09-18T12:53:21;5.45;;;3.65;;
11473;SDS011;5793;52.238;13.438;2023-09-18T12:55:50;10.73;;;4.30;;
11473;SDS011;5793;52.238;13.438;2023-09-18T12:58:18;8.93;;;3.80;;
11473;SDS011;5793;52.238;13.438;2023-09-18T13:00:46;8.75;;;3.97;;
11473;SDS011;5793;52.238;13.438;2023-09-18T13:03:15;8.60;;;4.05;;
11473;SDS011;5793;52.238;13.438;2023-09-18T13:05:46;6.88;;;4.00;;
11473;SDS011;5793;52.238;13.438;2023-09-18T13:08:15;8.10;;;4.15;;
11473;SDS011;5793;52.238;13.438;2023-09-18T13:10:49;9.93;;;4.18;;
11473;SDS011;5793;52.238;13.438;2023-09-18T13:13:17;10.27;;;3.97;;
11473;SDS011;5793;52.238;13.438;2023-09-18T13:15:46;4.40;;;3.80;;
11473;SDS011;5793;52.238;13.438;2023-09-18T13:18:16;7.20;;;4.10;;
11473;SDS011;5793;52.238;13.438;2023-09-18T13:20:47;6.93;;;4.38;;
11473;SDS011;5793;52.238;13.438;2023-09-18T13:23:15;6.22;;;3.97;;
11473;SDS011;5793;52.238;13.438;2023-09-18T13:25:47;7.82;;;4.20;;
11473;SDS011;5793;52.238;13.438;2023-09-18T13:28:15;10.15;;;4.05;;
11473;SDS011;5793;52.238;13.438;2023-09-18T13:30:47;8.85;;;4.38;;
11473;SDS011;5793;52.238;13.438;2023-09-18T13:33:15;8.52;;;3.92;;
11473;SDS011;5793;52.238;13.438;2023-09-18T13:35:44;5.03;;;3.58;;
11473;SDS011;5793;52.238;13.438;2023-09-18T13:38:14;10.27;;;3.80;;
11473;SDS011;5793;52.238;13.438;2023-09-18T13:40:42;7.22;;;3.90;;
11473;SDS011;5793;52.238;13.438;2023-09-18T13:43:12;8.55;;;3.65;;
11473;SDS011;5793;52.238;13.438;2023-09-18T13:45:41;6.38;;;3.67;;
11473;SDS011;5793;52.238;13.438;2023-09-18T13:48:09;9.43;;;3.50;;
11473;SDS011;5793;52.238;13.438;2023-09-18T13:50:37;7.90;;;3.33;;
11473;SDS011;5793;52.238;13.438;2023-09-18T13:53:06;8.02;;;3.28;;
11473;SDS011;5793;52.238;13.438;2023-09-18T13:55:34;5.13;;;3.13;;
11473;SDS011;5793;52.238;13.438;2023-09-18T13:58:02;5.55;;;3.15;;
11473;SDS011;5793;52.238;13.438;2023-09-18T14:00:31;8.82;;;3.03;;
11473;SDS011;5793;52.238;13.438;2023-09-18T14:02:59;8.30;;;3.10;;
11473;SDS011;5793;52.238;13.438;2023-09-18T14:05:29;6.63;;;3.10;;
11473;SDS011;5793;52.238;13.438;2023-09-18T14:07:59;6.32;;;3.10;;
11473;SDS011;5793;52.238;13.438;2023-09-18T14:10:41;10.00;;;3.55;;
11473;SDS011;5793;52.238;13.438;2023-09-18T14:13:09;8.32;;;3.10;;
11473;SDS011;5793;52.238;13.438;2023-09-18T14:15:37;8.45;;;3.13;;
11473;SDS011;5793;52.238;13.438;2023-09-18T14:18:05;7.22;;;3.38;;
11473;SDS011;5793;52.238;13.438;2023-09-18T14:20:33;7.53;;;3.08;;
11473;SDS011;5793;52.238;13.438;2023-09-18T14:23:01;7.10;;;3.42;;
11473;SDS011;5793;52.238;13.438;2023-09-18T14:25:29;9.07;;;3.20;;
11473;SDS011;5793;52.238;13.438;2023-09-18T14:27:59;7.90;;;3.50;;
11473;SDS011;5793;52.238;13.438;2023-09-18T14:30:26;7.43;;;3.05;;
11473;SDS011;5793;52.238;13.438;2023-09-18T14:32:57;7.15;;;3.00;;
11473;SDS011;5793;52.238;13.438;2023-09-18T14:35:27;6.55;;;2.92;;
11473;SDS011;5793;52.238;13.438;2023-09-18T14:37:55;5.38;;;3.00;;
11473;SDS011;5793;52.238;13.438;2023-09-18T14:40:23;6.72;;;2.83;;
11473;SDS011;5793;52.238;13.438;2023-09-18T14:42:51;6.30;;;2.95;;
11473;SDS011;5793;52.238;13.438;2023-09-18T14:45:21;6.97;;;2.83;;
11473;SDS011;5793;52.238;13.438;2023-09-18T14:47:50;5.65;;;2.85;;
11473;SDS011;5793;52.238;13.438;2023-09-18T14:50:18;6.18;;;3.08;;
11473;SDS011;5793;52.238;13.438;2023-09-18T14:52:47;7.10;;;3.05;;
11473;SDS011;5793;52.238;13.438;2023-09-18T14:55:15;5.35;;;2.35;;
11473;SDS011;5793;52.238;13.438;2023-09-18T14:57:43;8.98;;;3.13;;
11473;SDS011;5793;52.238;13.438;2023-09-18T15:00:11;11.20;;;2.97;;